sensor_id;sensor_type;location;lat;lon;timestamp;P1;durP1;ratioP1;P2;durP2;ratioP2
43014;SDS011;28637;50.554;7.032;2023-03-01T00:03:00;10.40;;;6.13;;
43014;SDS011;28637;50.554;7.032;2023-03-01T00:08:00;12.13;;;6.27;;
43014;SDS011;28637;50.554;7.032;2023-03-01T00:13:01;13.73;;;6.43;;
43014;SDS011;28637;50.554;7.032;2023-03-01T00:18:02;11.20;;;6.23;;
43014;SDS011;28637;50.554;7.032;2023-03-01T00:23:03;11.47;;;6.33;;
43014;SDS011;28637;50.554;7.032;2023-03-01T00:28:03;11.67;;;6.40;;
43014;SDS011;28637;50.554;7.032;2023-03-01T00:33:04;14.83;;;6.17;;
43014;SDS011;28637;50.554;7.032;2023-03-01T00:38:05;20.17;;;6.50;;
43014;SDS011;28637;50.554;7.032;2023-03-01T00:43:06;11.70;;;5.65;;
43014;SDS011;28637;50.554;7.032;2023-03-01T00:48:06;11.07;;;5.60;;
43014;SDS011;28637;50.554;7.032;2023-03-01T00:53:07;11.50;;;5.63;;
43014;SDS011;28637;50.554;7.032;2023-03-01T00:58:08;9.87;;;5.53;;
43014;SDS011;28637;50.554;7.032;2023-03-01T01:03:09;11.50;;;5.67;;
43014;SDS011;28637;50.554;7.032;2023-03-01T01:08:10;10.87;;;5.80;;
43014;SDS011;28637;50.554;7.032;2023-03-01T01:13:10;10.73;;;5.27;;
43014;SDS011;28637;50.554;7.032;2023-03-01T01:18:11;11.00;;;5.33;;
43014;SDS011;28637;50.554;7.032;2023-03-01T01:23:12;9.63;;;5.43;;
43014;SDS011;28637;50.554;7.032;2023-03-01T01:28:12;11.17;;;5.47;;
43014;SDS011;28637;50.554;7.032;2023-03-01T01:33:13;11.73;;;5.27;;
43014;SDS011;28637;50.554;7.032;2023-03-01T01:38:14;10.30;;;5.70;;
43014;SDS011;28637;50.554;7.032;2023-03-01T01:43:19;11.83;;;5.63;;
43014;SDS011;28637;50.554;7.032;2023-03-01T01:48:24;10.57;;;5.30;;
43014;SDS011;28637;50.554;7.032;2023-03-01T01:53:40;10.77;;;5.15;;
43014;SDS011;28637;50.554;7.032;2023-03-01T01:58:43;10.13;;;5.53;;
43014;SDS011;28637;50.554;7.032;2023-03-01T02:03:47;9.45;;;4.93;;
43014;SDS011;28637;50.554;7.032;2023-03-01T02:08:49;10.77;;;5.72;;
43014;SDS011;28637;50.554;7.032;2023-03-01T02:13:52;12.77;;;5.45;;
43014;SDS011;28637;50.554;7.032;2023-03-01T02:18:54;10.27;;;5.20;;
43014;SDS011;28637;50.554;7.032;2023-03-01T02:23:57;12.23;;;5.83;;
43014;SDS011;28637;50.554;7.032;2023-03-01T02:29:01;9.68;;;5.47;;
43014;SDS011;28637;50.554;7.032;2023-03-01T02:34:03;13.07;;;5.87;;
43014;SDS011;28637;50.554;7.032;2023-03-01T02:44:14;9.55;;;5.32;;
43014;SDS011;28637;50.554;7.032;2023-03-01T02:49:18;12.80;;;5.72;;
43014;SDS011;28637;50.554;7.032;2023-03-01T02:59:37;11.15;;;5.45;;
43014;SDS011;28637;50.554;7.032;2023-03-01T03:04:40;10.25;;;5.70;;
43014;SDS011;28637;50.554;7.032;2023-03-01T03:09:41;11.43;;;5.95;;
43014;SDS011;28637;50.554;7.032;2023-03-01T03:14:41;13.50;;;6.13;;
43014;SDS011;28637;50.554;7.032;2023-03-01T03:19:42;12.50;;;6.07;;
43014;SDS011;28637;50.554;7.032;2023-03-01T03:24:45;11.68;;;5.55;;
43014;SDS011;28637;50.554;7.032;2023-03-01T03:29:45;13.83;;;5.47;;
43014;SDS011;28637;50.554;7.032;2023-03-01T03:34:46;11.30;;;5.90;;
43014;SDS011;28637;50.554;7.032;2023-03-01T03:44:49;9.32;;;4.88;;
43014;SDS011;28637;50.554;7.032;2023-03-01T03:49:49;12.73;;;5.60;;
43014;SDS011;28637;50.554;7.032;2023-03-01T03:54:50;12.50;;;5.50;;
43014;SDS011;28637;50.554;7.032;2023-03-01T03:59:51;13.60;;;6.03;;
43014;SDS011;28637;50.554;7.032;2023-03-01T04:04:51;12.37;;;5.40;;
43014;SDS011;28637;50.554;7.032;2023-03-01T04:09:52;11.60;;;5.20;;
43014;SDS011;28637;50.554;7.032;2023-03-01T04:14:52;11.37;;;6.07;;
43014;SDS011;28637;50.554;7.032;2023-03-01T04:19:53;12.63;;;5.80;;
43014;SDS011;28637;50.554;7.032;2023-03-01T04:24:54;13.73;;;5.67;;
43014;SDS011;28637;50.554;7.032;2023-03-01T04:29:55;10.97;;;5.43;;
43014;SDS011;28637;50.554;7.032;2023-03-01T04:34:55;12.93;;;6.03;;
43014;SDS011;28637;50.554;7.032;2023-03-01T04:39:56;9.67;;;5.50;;
43014;SDS011;28637;50.554;7.032;2023-03-01T04:44:57;10.50;;;5.40;;
43014;SDS011;28637;50.554;7.032;2023-03-01T04:49:57;14.30;;;5.60;;
43014;SDS011;28637;50.554;7.032;2023-03-01T04:54:58;10.80;;;5.47;;
43014;SDS011;28637;50.554;7.032;2023-03-01T04:59:59;13.17;;;5.63;;
43014;SDS011;28637;50.554;7.032;2023-03-01T05:04:59;11.27;;;5.50;;
43014;SDS011;28637;50.554;7.032;2023-03-01T05:10:00;11.53;;;5.40;;
43014;SDS011;28637;50.554;7.032;2023-03-01T05:15:01;10.67;;;5.80;;
43014;SDS011;28637;50.554;7.032;2023-03-01T05:20:07;14.07;;;5.80;;
43014;SDS011;28637;50.554;7.032;2023-03-01T05:25:08;13.13;;;5.72;;
43014;SDS011;28637;50.554;7.032;2023-03-01T05:30:10;14.90;;;6.13;;
43014;SDS011;28637;50.554;7.032;2023-03-01T05:35:14;13.35;;;5.72;;
43014;SDS011;28637;50.554;7.032;2023-03-01T05:40:18;12.98;;;5.85;;
43014;SDS011;28637;50.554;7.032;2023-03-01T05:45:21;12.85;;;6.40;;
43014;SDS011;28637;50.554;7.032;2023-03-01T05:50:24;16.33;;;6.88;;
43014;SDS011;28637;50.554;7.032;2023-03-01T05:55:27;23.08;;;7.80;;
43014;SDS011;28637;50.554;7.032;2023-03-01T06:00:29;17.75;;;7.20;;
43014;SDS011;28637;50.554;7.032;2023-03-01T06:05:30;20.40;;;8.47;;
43014;SDS011;28637;50.554;7.032;2023-03-01T06:10:31;16.67;;;7.00;;
43014;SDS011;28637;50.554;7.032;2023-03-01T06:15:32;38.05;;;16.17;;
43014;SDS011;28637;50.554;7.032;2023-03-01T06:20:33;16.30;;;7.50;;
43014;SDS011;28637;50.554;7.032;2023-03-01T06:25:33;16.43;;;7.83;;
43014;SDS011;28637;50.554;7.032;2023-03-01T06:30:34;15.37;;;7.17;;
43014;SDS011;28637;50.554;7.032;2023-03-01T06:35:35;16.27;;;7.17;;
43014;SDS011;28637;50.554;7.032;2023-03-01T06:40:35;20.83;;;8.57;;
43014;SDS011;28637;50.554;7.032;2023-03-01T06:45:36;17.60;;;8.27;;
43014;SDS011;28637;50.554;7.032;2023-03-01T06:50:37;18.70;;;8.20;;
43014;SDS011;28637;50.554;7.032;2023-03-01T06:55:38;16.53;;;7.83;;
43014;SDS011;28637;50.554;7.032;2023-03-01T07:00:39;19.13;;;8.53;;
43014;SDS011;28637;50.554;7.032;2023-03-01T07:05:40;21.30;;;9.63;;
43014;SDS011;28637;50.554;7.032;2023-03-01T07:10:41;24.27;;;9.97;;
43014;SDS011;28637;50.554;7.032;2023-03-01T07:15:41;23.13;;;9.70;;
43014;SDS011;28637;50.554;7.032;2023-03-01T07:20:42;19.33;;;8.63;;
43014;SDS011;28637;50.554;7.032;2023-03-01T07:25:43;17.10;;;7.60;;
43014;SDS011;28637;50.554;7.032;2023-03-01T07:30:43;24.53;;;10.20;;
43014;SDS011;28637;50.554;7.032;2023-03-01T07:35:44;22.30;;;9.77;;
43014;SDS011;28637;50.554;7.032;2023-03-01T07:40:45;17.10;;;7.53;;
43014;SDS011;28637;50.554;7.032;2023-03-01T07:45:46;16.40;;;8.00;;
43014;SDS011;28637;50.554;7.032;2023-03-01T07:50:46;16.73;;;7.50;;
43014;SDS011;28637;50.554;7.032;2023-03-01T07:55:47;18.30;;;8.20;;
43014;SDS011;28637;50.554;7.032;2023-03-01T08:00:48;16.10;;;7.47;;
43014;SDS011;28637;50.554;7.032;2023-03-01T08:05:48;17.47;;;7.93;;
43014;SDS011;28637;50.554;7.032;2023-03-01T08:10:49;20.33;;;8.63;;
43014;SDS011;28637;50.554;7.032;2023-03-01T08:15:49;17.97;;;8.80;;
43014;SDS011;28637;50.554;7.032;2023-03-01T08:20:50;18.50;;;8.73;;
43014;SDS011;28637;50.554;7.032;2023-03-01T08:25:51;21.97;;;9.93;;
43014;SDS011;28637;50.554;7.032;2023-03-01T08:30:52;20.27;;;9.82;;
43014;SDS011;28637;50.554;7.032;2023-03-01T08:36:01;19.20;;;9.63;;
43014;SDS011;28637;50.554;7.032;2023-03-01T08:41:03;20.05;;;9.00;;
43014;SDS011;28637;50.554;7.032;2023-03-01T08:46:04;23.47;;;9.77;;
43014;SDS011;28637;50.554;7.032;2023-03-01T08:51:11;19.20;;;10.10;;
43014;SDS011;28637;50.554;7.032;2023-03-01T08:56:19;22.90;;;9.52;;
43014;SDS011;28637;50.554;7.032;2023-03-01T09:01:20;19.07;;;9.40;;
43014;SDS011;28637;50.554;7.032;2023-03-01T09:06:21;18.05;;;9.65;;
43014;SDS011;28637;50.554;7.032;2023-03-01T09:11:22;20.98;;;10.63;;
43014;SDS011;28637;50.554;7.032;2023-03-01T09:16:22;21.63;;;10.40;;
43014;SDS011;28637;50.554;7.032;2023-03-01T13:21:36;13.32;;;9.43;;
43014;SDS011;28637;50.554;7.032;2023-03-01T13:32:18;10.93;;;7.80;;
43014;SDS011;28637;50.554;7.032;2023-03-01T13:37:20;11.32;;;7.35;;
43014;SDS011;28637;50.554;7.032;2023-03-01T13:42:33;10.25;;;6.28;;
43014;SDS011;28637;50.554;7.032;2023-03-01T13:47:40;10.25;;;6.22;;
43014;SDS011;28637;50.554;7.032;2023-03-01T13:52:43;9.38;;;6.25;;
43014;SDS011;28637;50.554;7.032;2023-03-01T13:57:53;10.20;;;6.20;;
43014;SDS011;28637;50.554;7.032;2023-03-01T14:03:03;8.32;;;5.85;;
43014;SDS011;28637;50.554;7.032;2023-03-01T14:08:19;8.25;;;5.57;;
43014;SDS011;28637;50.554;7.032;2023-03-01T14:13:28;9.30;;;5.65;;
43014;SDS011;28637;50.554;7.032;2023-03-01T14:18:58;10.40;;;5.75;;
43014;SDS011;28637;50.554;7.032;2023-03-01T14:24:06;11.43;;;5.82;;
43014;SDS011;28637;50.554;7.032;2023-03-01T14:29:29;9.80;;;6.07;;
43014;SDS011;28637;50.554;7.032;2023-03-01T14:34:35;11.15;;;6.65;;
43014;SDS011;28637;50.554;7.032;2023-03-01T14:39:36;10.23;;;6.97;;
43014;SDS011;28637;50.554;7.032;2023-03-01T14:44:40;8.07;;;6.03;;
43014;SDS011;28637;50.554;7.032;2023-03-01T14:49:43;8.10;;;6.18;;
43014;SDS011;28637;50.554;7.032;2023-03-01T14:59:46;8.40;;;6.57;;
43014;SDS011;28637;50.554;7.032;2023-03-01T15:04:51;8.52;;;6.13;;
43014;SDS011;28637;50.554;7.032;2023-03-01T15:09:57;8.65;;;6.03;;
43014;SDS011;28637;50.554;7.032;2023-03-01T15:14:58;9.48;;;5.72;;
43014;SDS011;28637;50.554;7.032;2023-03-01T15:20:00;7.25;;;5.75;;
43014;SDS011;28637;50.554;7.032;2023-03-01T15:25:13;8.13;;;5.07;;
43014;SDS011;28637;50.554;7.032;2023-03-01T15:30:23;6.78;;;5.50;;
43014;SDS011;28637;50.554;7.032;2023-03-01T15:35:41;6.32;;;4.78;;
43014;SDS011;28637;50.554;7.032;2023-03-01T15:45:55;4.70;;;4.20;;
43014;SDS011;28637;50.554;7.032;2023-03-01T15:50:58;4.97;;;4.00;;
43014;SDS011;28637;50.554;7.032;2023-03-01T15:56:01;4.63;;;3.88;;
43014;SDS011;28637;50.554;7.032;2023-03-01T16:01:02;6.18;;;4.00;;
43014;SDS011;28637;50.554;7.032;2023-03-01T16:06:03;5.68;;;4.57;;
43014;SDS011;28637;50.554;7.032;2023-03-01T16:11:04;6.15;;;4.53;;
43014;SDS011;28637;50.554;7.032;2023-03-01T16:16:10;6.38;;;4.57;;
43014;SDS011;28637;50.554;7.032;2023-03-01T16:21:16;5.47;;;4.53;;
43014;SDS011;28637;50.554;7.032;2023-03-01T16:26:24;6.35;;;4.60;;
43014;SDS011;28637;50.554;7.032;2023-03-01T16:36:28;6.85;;;4.70;;
43014;SDS011;28637;50.554;7.032;2023-03-01T16:41:29;7.70;;;5.35;;
43014;SDS011;28637;50.554;7.032;2023-03-01T16:46:30;8.35;;;6.38;;
43014;SDS011;28637;50.554;7.032;2023-03-01T16:51:30;16.73;;;9.17;;
43014;SDS011;28637;50.554;7.032;2023-03-01T16:56:34;15.25;;;9.73;;
43014;SDS011;28637;50.554;7.032;2023-03-01T17:01:37;15.02;;;9.02;;
43014;SDS011;28637;50.554;7.032;2023-03-01T17:06:40;11.85;;;8.20;;
43014;SDS011;28637;50.554;7.032;2023-03-01T17:11:41;12.03;;;7.93;;
43014;SDS011;28637;50.554;7.032;2023-03-01T17:16:42;14.10;;;7.17;;
43014;SDS011;28637;50.554;7.032;2023-03-01T17:26:45;17.17;;;10.95;;
43014;SDS011;28637;50.554;7.032;2023-03-01T17:31:46;16.02;;;8.98;;
43014;SDS011;28637;50.554;7.032;2023-03-01T17:36:47;14.95;;;7.85;;
43014;SDS011;28637;50.554;7.032;2023-03-01T17:41:49;15.40;;;8.48;;
43014;SDS011;28637;50.554;7.032;2023-03-01T17:46:53;21.83;;;9.48;;
43014;SDS011;28637;50.554;7.032;2023-03-01T17:51:53;16.63;;;8.77;;
43014;SDS011;28637;50.554;7.032;2023-03-01T17:56:54;15.18;;;7.90;;
43014;SDS011;28637;50.554;7.032;2023-03-01T18:01:56;20.38;;;13.00;;
43014;SDS011;28637;50.554;7.032;2023-03-01T18:06:57;22.05;;;12.90;;
43014;SDS011;28637;50.554;7.032;2023-03-01T18:11:58;15.93;;;9.73;;
43014;SDS011;28637;50.554;7.032;2023-03-01T18:16:59;12.45;;;7.35;;
43014;SDS011;28637;50.554;7.032;2023-03-01T18:22:08;10.55;;;5.97;;
43014;SDS011;28637;50.554;7.032;2023-03-01T18:27:09;21.70;;;11.85;;
43014;SDS011;28637;50.554;7.032;2023-03-01T18:32:10;13.20;;;8.32;;
43014;SDS011;28637;50.554;7.032;2023-03-01T18:37:11;16.85;;;9.60;;
43014;SDS011;28637;50.554;7.032;2023-03-01T18:42:12;23.38;;;11.38;;
43014;SDS011;28637;50.554;7.032;2023-03-01T18:47:15;15.32;;;9.88;;
43014;SDS011;28637;50.554;7.032;2023-03-01T18:52:16;14.50;;;7.25;;
43014;SDS011;28637;50.554;7.032;2023-03-01T18:57:16;13.27;;;6.75;;
43014;SDS011;28637;50.554;7.032;2023-03-01T19:02:17;10.65;;;6.47;;
43014;SDS011;28637;50.554;7.032;2023-03-01T19:07:18;12.57;;;6.30;;
43014;SDS011;28637;50.554;7.032;2023-03-01T19:12:19;13.43;;;8.43;;
43014;SDS011;28637;50.554;7.032;2023-03-01T19:17:20;11.35;;;7.03;;
43014;SDS011;28637;50.554;7.032;2023-03-01T19:22:23;11.18;;;6.30;;
43014;SDS011;28637;50.554;7.032;2023-03-01T19:32:26;10.23;;;5.93;;
43014;SDS011;28637;50.554;7.032;2023-03-01T19:37:26;12.52;;;6.15;;
43014;SDS011;28637;50.554;7.032;2023-03-01T19:42:28;12.48;;;6.53;;
43014;SDS011;28637;50.554;7.032;2023-03-01T19:47:29;11.70;;;6.55;;
43014;SDS011;28637;50.554;7.032;2023-03-01T19:52:29;9.45;;;5.75;;
43014;SDS011;28637;50.554;7.032;2023-03-01T19:57:30;11.55;;;6.32;;
43014;SDS011;28637;50.554;7.032;2023-03-01T20:02:32;11.30;;;6.97;;
43014;SDS011;28637;50.554;7.032;2023-03-01T20:07:33;15.40;;;7.95;;
43014;SDS011;28637;50.554;7.032;2023-03-01T20:12:35;11.13;;;6.50;;
43014;SDS011;28637;50.554;7.032;2023-03-01T20:17:36;10.90;;;5.95;;
43014;SDS011;28637;50.554;7.032;2023-03-01T20:22:36;14.07;;;6.85;;
43014;SDS011;28637;50.554;7.032;2023-03-01T20:27:37;17.50;;;7.20;;
43014;SDS011;28637;50.554;7.032;2023-03-01T20:32:38;19.23;;;7.57;;
43014;SDS011;28637;50.554;7.032;2023-03-01T20:37:39;16.40;;;7.22;;
43014;SDS011;28637;50.554;7.032;2023-03-01T20:42:39;13.43;;;5.88;;
43014;SDS011;28637;50.554;7.032;2023-03-01T20:47:40;14.27;;;6.90;;
43014;SDS011;28637;50.554;7.032;2023-03-01T20:52:41;14.77;;;6.28;;
43014;SDS011;28637;50.554;7.032;2023-03-01T20:57:41;40.00;;;9.13;;
43014;SDS011;28637;50.554;7.032;2023-03-01T21:02:42;24.42;;;7.68;;
43014;SDS011;28637;50.554;7.032;2023-03-01T21:07:43;37.15;;;9.40;;
43014;SDS011;28637;50.554;7.032;2023-03-01T21:12:45;12.77;;;6.10;;
43014;SDS011;28637;50.554;7.032;2023-03-01T21:17:46;30.40;;;8.98;;
43014;SDS011;28637;50.554;7.032;2023-03-01T21:22:47;30.35;;;8.73;;
43014;SDS011;28637;50.554;7.032;2023-03-01T21:27:47;30.88;;;9.13;;
43014;SDS011;28637;50.554;7.032;2023-03-01T21:32:48;10.80;;;5.47;;
43014;SDS011;28637;50.554;7.032;2023-03-01T21:37:48;13.75;;;5.45;;
43014;SDS011;28637;50.554;7.032;2023-03-01T21:42:49;15.38;;;6.80;;
43014;SDS011;28637;50.554;7.032;2023-03-01T21:47:50;13.15;;;5.88;;
43014;SDS011;28637;50.554;7.032;2023-03-01T21:52:50;15.43;;;6.43;;
43014;SDS011;28637;50.554;7.032;2023-03-01T21:57:51;12.63;;;5.75;;
43014;SDS011;28637;50.554;7.032;2023-03-01T22:02:52;12.38;;;6.18;;
43014;SDS011;28637;50.554;7.032;2023-03-01T22:07:57;33.20;;;16.05;;
43014;SDS011;28637;50.554;7.032;2023-03-01T22:12:57;13.85;;;5.72;;
43014;SDS011;28637;50.554;7.032;2023-03-01T22:17:59;11.53;;;5.37;;
43014;SDS011;28637;50.554;7.032;2023-03-01T22:22:59;10.35;;;5.05;;
43014;SDS011;28637;50.554;7.032;2023-03-01T22:28:00;10.95;;;5.53;;
43014;SDS011;28637;50.554;7.032;2023-03-01T22:33:00;12.85;;;6.78;;
43014;SDS011;28637;50.554;7.032;2023-03-01T22:38:01;14.25;;;6.38;;
43014;SDS011;28637;50.554;7.032;2023-03-01T22:43:02;7.93;;;4.55;;
43014;SDS011;28637;50.554;7.032;2023-03-01T22:48:03;9.80;;;4.90;;
43014;SDS011;28637;50.554;7.032;2023-03-01T22:53:04;12.63;;;6.07;;
43014;SDS011;28637;50.554;7.032;2023-03-01T22:58:04;10.15;;;5.10;;
43014;SDS011;28637;50.554;7.032;2023-03-01T23:03:05;11.57;;;4.95;;
43014;SDS011;28637;50.554;7.032;2023-03-01T23:08:06;11.05;;;5.35;;
43014;SDS011;28637;50.554;7.032;2023-03-01T23:13:07;11.40;;;5.38;;
43014;SDS011;28637;50.554;7.032;2023-03-01T23:18:07;12.27;;;5.38;;
43014;SDS011;28637;50.554;7.032;2023-03-01T23:23:08;11.27;;;5.10;;
43014;SDS011;28637;50.554;7.032;2023-03-01T23:28:08;10.35;;;5.25;;
43014;SDS011;28637;50.554;7.032;2023-03-01T23:33:09;10.83;;;5.27;;
43014;SDS011;28637;50.554;7.032;2023-03-01T23:38:10;11.07;;;5.05;;
43014;SDS011;28637;50.554;7.032;2023-03-01T23:43:10;9.87;;;5.13;;
43014;SDS011;28637;50.554;7.032;2023-03-01T23:48:11;11.52;;;5.13;;
43014;SDS011;28637;50.554;7.032;2023-03-01T23:53:14;13.10;;;5.75;;
43014;SDS011;28637;50.554;7.032;2023-03-01T23:58:18;13.55;;;5.30;;
